Time;durP1;ratioP1;P1;durP2;ratioP2;P2;SDS_P1;SDS_P2;PMS_P1;PMS_P2;Temp;Humidity;BMP_temperature;BMP_pressure;BME280_temperature;BME280_humidity;BME280_pressure;Samples;Min_cycle;Max_cycle;Signal;HPM_P1;HPM_P2
2022/06/09 00:01:08;;;;;;;;;3.33;3.00;;;;;17.28;58.08;100856.41;5135351;27;45651;-69
2022/06/09 00:03:39;;;;;;;;;2.00;2.00;;;;;17.22;57.59;100867.19;5135666;27;45114;-65
2022/06/09 00:06:09;;;;;;;;;2.00;2.00;;;;;16.93;58.38;100836.56;5136323;27;45277;-68
2022/06/09 00:08:35;;;;;;;;;2.00;2.00;;;;;16.93;58.35;100846.47;5121911;27;45700;-69
2022/06/09 00:11:05;;;;;;;;;2.67;1.00;;;;;17.03;58.42;100874.38;5116983;27;46805;-68
2022/06/09 00:13:31;;;;;;;;;2.67;2.00;;;;;16.99;58.65;100881.53;5135654;27;45036;-67
2022/06/09 00:15:57;;;;;;;;;2.00;1.00;;;;;17.01;58.52;100895.03;5131738;27;45190;-70
2022/06/09 00:18:23;;;;;;;;;5.00;2.00;;;;;16.95;58.41;100875.25;5116113;27;45092;-69
2022/06/09 00:20:48;;;;;;;;;3.33;3.00;;;;;16.98;58.45;100885.16;5115618;27;45035;-70
2022/06/09 00:23:16;;;;;;;;;4.00;1.33;;;;;16.94;58.41;100899.53;5115592;27;45023;-66
2022/06/09 00:25:42;;;;;;;;;5.67;2.33;;;;;16.77;59.00;100875.16;5117080;27;45151;-62
2022/06/09 00:28:08;;;;;;;;;1.67;1.67;;;;;16.44;59.52;100827.41;5131101;27;45309;-66
2022/06/09 00:30:33;;;;;;;;;2.67;2.00;;;;;16.80;59.34;100896.78;5135281;27;45303;-69
2022/06/09 00:32:59;;;;;;;;;2.00;1.00;;;;;16.78;59.70;100903.97;5134950;27;45151;-69
2022/06/09 00:35:24;;;;;;;;;2.00;1.00;;;;;16.61;59.37;100879.59;5115380;27;45308;-70
2022/06/09 00:37:49;;;;;;;;;2.00;1.00;;;;;16.68;59.61;100904.81;5117225;27;45098;-68
2022/06/09 00:40:16;;;;;;;;;4.00;3.33;;;;;16.63;59.83;100910.22;5119986;27;45236;-67
2022/06/09 00:42:41;;;;;;;;;5.33;3.33;;;;;16.59;60.09;100902.97;5115825;27;45052;-67
2022/06/09 00:45:34;;;;;;;;;2.00;2.00;;;;;16.60;59.93;100904.78;5125910;27;45183;-67
2022/06/09 00:48:44;;;;;;;;;2.67;1.67;;;;;16.61;59.96;100906.56;5114129;27;45098;-64
2022/06/09 00:51:39;;;;;;;;;7.00;2.67;;;;;16.61;59.76;100903.88;5030195;28;45181;-65
2022/06/09 00:54:10;;;;;;;;;2.33;2.33;;;;;16.51;60.44;100902.94;5035400;28;45288;-64
2022/06/09 00:56:41;;;;;;;;;2.33;2.00;;;;;16.34;60.51;100885.78;5091208;27;45149;-64
2022/06/09 00:59:11;;;;;;;;;2.33;2.00;;;;;16.49;59.99;100918.22;5116295;27;45198;-63
2022/06/09 01:01:37;;;;;;;;;4.33;0.67;;;;;16.46;60.34;100910.09;5134538;27;45043;-64
2022/06/09 01:04:08;;;;;;;;;4.00;2.33;;;;;16.42;60.43;100910.13;5134695;27;45014;-63
2022/06/09 01:06:42;;;;;;;;;4.67;1.00;;;;;16.41;60.24;100909.19;5127646;27;45027;-69
2022/06/09 01:09:14;;;;;;;;;4.00;4.00;;;;;16.47;60.40;100916.44;5125460;27;45230;-64
2022/06/09 01:11:40;;;;;;;;;2.00;0.67;;;;;16.47;60.57;100914.63;5122995;27;45518;-66
2022/06/09 01:14:12;;;;;;;;;3.00;2.33;;;;;16.27;60.68;100894.72;5109069;27;45286;-68
2022/06/09 01:17:04;;;;;;;;;1.67;1.00;;;;;16.33;60.49;100911.88;5113286;27;45021;-67
2022/06/09 01:20:07;;;;;;;;;5.00;2.00;;;;;16.26;60.83;100920.78;5113737;27;44918;-69
2022/06/09 01:23:09;;;;;;;;;1.33;1.33;;;;;16.25;60.96;100931.56;5110735;27;46921;-68
2022/06/09 01:25:50;;;;;;;;;2.67;1.00;;;;;16.17;61.68;100923.47;5094440;27;45552;-66
2022/06/09 01:28:37;;;;;;;;;1.00;1.00;;;;;16.10;61.44;100926.97;5107193;27;45401;-66
2022/06/09 01:31:21;;;;;;;;;1.00;1.00;;;;;15.99;61.90;100918.84;5111028;27;45428;-69
2022/06/09 01:34:20;;;;;;;;;4.33;2.67;;;;;16.09;61.96;100928.78;5105995;27;46713;-67
2022/06/09 01:37:25;;;;;;;;;7.00;3.00;;;;;16.06;61.88;100938.66;5108374;27;45063;-68
2022/06/09 01:40:01;;;;;;;;;3.67;2.67;;;;;16.08;62.25;100943.13;5092080;27;45423;-67
2022/06/09 01:42:35;;;;;;;;;6.67;2.00;;;;;16.05;62.22;100942.22;5096307;27;45522;-69
2022/06/09 01:45:07;;;;;;;;;6.00;3.00;;;;;16.02;62.28;100941.31;5102813;27;45400;-65
2022/06/09 01:47:40;;;;;;;;;2.67;2.33;;;;;15.95;62.37;100931.38;5096175;27;45385;-70
2022/06/09 01:50:11;;;;;;;;;5.33;3.00;;;;;16.01;61.96;100942.19;5105146;27;45553;-67
2022/06/09 01:52:38;;;;;;;;;3.67;3.33;;;;;15.88;62.33;100934.91;5119348;27;45377;-66
2022/06/09 01:55:07;;;;;;;;;1.67;1.67;;;;;15.87;62.55;100948.38;5113099;27;45386;-68
2022/06/09 01:57:37;;;;;;;;;2.67;2.33;;;;;15.69;62.84;100920.38;5120234;27;45073;-68
2022/06/09 02:00:10;;;;;;;;;7.33;2.33;;;;;15.82;62.46;100951.94;5118254;27;44905;-65
2022/06/09 02:02:44;;;;;;;;;4.00;4.00;;;;;15.35;62.66;100885.06;5118571;27;45104;-65
2022/06/09 02:05:28;;;;;;;;;5.00;2.00;;;;;15.69;63.07;100951.78;5113002;27;45526;-69
2022/06/09 02:07:57;;;;;;;;;5.67;4.67;;;;;15.75;63.15;100966.22;5124349;27;45274;-67
2022/06/09 02:10:35;;;;;;;;;2.50;1.00;;;;;15.66;63.11;100955.38;5117083;27;44967;-63
2022/06/09 02:13:09;;;;;;;;;5.67;2.33;;;;;15.80;63.05;100968.97;5111738;27;45354;-69
2022/06/09 02:15:39;;;;;;;;;5.33;2.67;;;;;15.82;62.86;100973.50;5111914;27;45400;-63
2022/06/09 02:18:13;;;;;;;;;3.00;2.00;;;;;15.83;62.92;100974.41;5125310;27;45316;-67
2022/06/09 02:20:43;;;;;;;;;2.33;1.33;;;;;15.83;63.01;100967.22;5113245;27;45384;-67
2022/06/09 02:23:11;;;;;;;;;7.67;3.00;;;;;15.78;62.69;100974.34;5115575;27;44866;-71
2022/06/09 02:25:38;;;;;;;;;9.33;3.00;;;;;15.71;63.28;100972.47;5112749;27;46146;-66
2022/06/09 02:28:04;;;;;;;;;4.33;3.00;;;;;15.71;63.10;100976.97;5125448;27;45163;-66
2022/06/09 02:30:30;;;;;;;;;7.00;3.00;;;;;15.69;63.22;100965.25;5118155;27;45531;-66
2022/06/09 02:32:55;;;;;;;;;5.00;3.00;;;;;15.66;63.22;100976.91;5123640;27;45240;-66
2022/06/09 02:35:20;;;;;;;;;5.00;2.00;;;;;15.41;63.51;100946.13;5129251;27;45189;-65
2022/06/09 02:37:46;;;;;;;;;4.33;2.00;;;;;15.58;63.50;100976.84;5109441;27;44933;-63
2022/06/09 02:40:11;;;;;;;;;7.00;4.67;;;;;15.13;63.16;100915.34;5111478;27;45243;-64
2022/06/09 02:42:37;;;;;;;;;1.33;1.33;;;;;15.61;63.31;100976.88;5117606;27;44912;-64
2022/06/09 02:45:03;;;;;;;;;2.00;2.00;;;;;15.58;63.25;100984.91;5107524;27;45204;-68
2022/06/09 02:47:29;;;;;;;;;4.67;3.00;;;;;15.45;63.33;100953.38;5110348;27;44873;-66
2022/06/09 02:49:55;;;;;;;;;5.67;4.00;;;;;15.39;63.57;100950.63;5111704;27;45302;-64
2022/06/09 02:52:20;;;;;;;;;4.67;1.67;;;;;15.46;63.61;100974.03;5121468;27;44992;-65
2022/06/09 02:54:45;;;;;;;;;5.67;4.00;;;;;15.47;63.89;100982.09;5119349;27;45187;-66
2022/06/09 02:57:11;;;;;;;;;3.67;3.33;;;;;15.25;63.60;100953.19;5113251;27;45508;-64
2022/06/09 02:59:36;;;;;;;;;2.00;2.00;;;;;15.45;63.70;100978.50;5111388;27;45511;-64
2022/06/09 03:02:02;;;;;;;;;5.00;4.00;;;;;15.46;63.82;100982.13;5113851;27;45088;-64
2022/06/09 03:04:27;;;;;;;;;2.33;2.00;;;;;15.44;64.00;100981.19;5112389;27;45637;-66
2022/06/09 03:06:52;;;;;;;;;6.33;2.67;;;;;15.41;64.04;100986.53;5112276;27;45129;-69
2022/06/09 03:09:18;;;;;;;;;5.33;3.00;;;;;15.40;64.39;100984.75;5110902;27;45205;-66
2022/06/09 03:11:43;;;;;;;;;4.00;3.00;;;;;15.29;64.47;100973.84;5115687;27;45135;-69
2022/06/09 03:14:10;;;;;;;;;5.00;3.00;;;;;15.36;64.53;100988.28;5108755;27;45410;-65
2022/06/09 03:16:36;;;;;;;;;6.00;3.00;;;;;15.32;64.12;100981.97;5105506;27;45493;-64
2022/06/09 03:19:01;;;;;;;;;3.67;2.67;;;;;15.43;64.18;100984.78;5102449;27;45842;-66
2022/06/09 03:21:26;;;;;;;;;4.00;2.00;;;;;15.45;63.99;100980.31;5107315;27;45455;-70
2022/06/09 03:23:52;;;;;;;;;4.33;2.33;;;;;15.48;64.13;100985.72;5095246;27;45263;-68
2022/06/09 03:26:17;;;;;;;;;4.67;2.67;;;;;15.46;64.19;100992.88;5098700;27;45704;-63
2022/06/09 03:28:42;;;;;;;;;4.00;2.00;;;;;15.32;64.39;100967.59;5076570;27;45247;-68
2022/06/09 03:31:08;;;;;;;;;6.00;5.00;;;;;15.28;64.16;100962.19;5095875;27;45255;-63
2022/06/09 03:33:33;;;;;;;;;2.67;2.67;;;;;15.37;64.37;100979.31;5108143;27;46196;-67
2022/06/09 03:36:00;;;;;;;;;4.67;3.00;;;;;15.41;64.31;100999.97;5117205;27;45363;-65
2022/06/09 03:38:25;;;;;;;;;2.67;2.67;;;;;15.40;64.60;100995.50;5111275;27;45224;-66
2022/06/09 03:40:51;;;;;;;;;4.33;4.00;;;;;15.33;64.35;100988.22;5092497;27;45341;-69
2022/06/09 03:43:16;;;;;;;;;3.00;2.00;;;;;15.41;64.50;101021.53;5097100;27;45651;-69
2022/06/09 03:45:41;;;;;;;;;4.33;2.67;;;;;15.48;64.47;101013.53;5075602;27;45464;-69
2022/06/09 03:48:07;;;;;;;;;2.33;1.67;;;;;15.46;63.89;101011.75;5094622;27;47600;-70
2022/06/09 03:50:33;;;;;;;;;4.33;3.00;;;;;15.33;64.23;100999.94;5097630;27;45651;-69
2022/06/09 03:52:59;;;;;;;;;8.33;3.00;;;;;15.48;64.30;101018.03;5080941;27;46134;-69
2022/06/09 03:55:24;;;;;;;;;1.67;1.67;;;;;15.46;64.06;101031.47;5109928;27;45720;-69
2022/06/09 03:57:51;;;;;;;;;3.00;3.00;;;;;15.49;64.08;101033.28;5099920;27;45616;-69
2022/06/09 04:00:19;;;;;;;;;5.00;3.67;;;;;15.53;64.28;101039.63;5100681;27;45573;-68
2022/06/09 04:02:45;;;;;;;;;3.00;3.00;;;;;15.50;63.97;101028.81;5095191;27;45605;-71
2022/06/09 04:05:10;;;;;;;;;3.33;3.00;;;;;15.49;64.25;101033.28;5109190;27;53720;-66
2022/06/09 04:07:36;;;;;;;;;2.00;2.00;;;;;15.43;64.14;101044.91;5106420;27;45387;-66
2022/06/09 04:10:02;;;;;;;;;6.67;3.33;;;;;15.40;64.59;101043.97;5107393;27;45235;-67
2022/06/09 04:12:27;;;;;;;;;3.00;3.00;;;;;15.43;64.41;101036.81;5117895;27;47320;-68
2022/06/09 04:14:52;;;;;;;;;6.00;3.00;;;;;15.48;64.13;101035.09;5118427;27;47418;-68
2022/06/09 04:17:18;;;;;;;;;6.33;3.33;;;;;15.47;64.61;101040.44;5110098;27;44926;-64
2022/06/09 04:19:43;;;;;;;;;7.67;2.00;;;;;15.46;64.42;101046.75;5111371;27;45337;-65
2022/06/09 04:22:09;;;;;;;;;5.33;4.67;;;;;15.44;64.46;101056.56;5111119;27;46025;-68
2022/06/09 04:24:35;;;;;;;;;9.67;4.33;;;;;15.26;64.09;101025.88;5119635;27;45566;-67
2022/06/09 04:27:02;;;;;;;;;4.67;3.33;;;;;15.44;64.55;101052.09;5122097;27;45460;-67
2022/06/09 04:29:28;;;;;;;;;4.00;4.00;;;;;15.11;64.04;100996.06;5103108;27;45373;-67
2022/06/09 04:31:53;;;;;;;;;6.33;2.67;;;;;15.53;64.15;101064.75;5108428;27;46754;-66
2022/06/09 04:34:18;;;;;;;;;4.00;4.00;;;;;15.39;64.32;101034.06;5108035;27;45270;-68
2022/06/09 04:36:44;;;;;;;;;5.00;3.00;;;;;15.51;64.39;101077.31;5103178;27;45276;-69
2022/06/09 04:39:10;;;;;;;;;7.67;3.00;;;;;15.38;64.39;101060.09;5112086;27;45221;-69
2022/06/09 04:41:36;;;;;;;;;5.33;3.00;;;;;15.05;64.35;101013.06;5117463;27;46045;-64
2022/06/09 04:44:02;;;;;;;;;6.00;3.67;;;;;15.30;64.03;101054.63;5107295;27;45496;-65
2022/06/09 04:46:28;;;;;;;;;4.67;4.67;;;;;15.33;64.49;101050.16;5105144;27;45457;-68
2022/06/09 04:48:53;;;;;;;;;8.67;5.00;;;;;15.42;64.32;101096.94;5103691;27;45573;-69
2022/06/09 04:51:21;;;;;;;;;2.00;2.00;;;;;15.42;63.97;101086.16;5106878;27;45338;-66
2022/06/09 04:53:48;;;;;;;;;5.00;2.67;;;;;15.52;64.38;101099.75;5120415;27;45187;-68
2022/06/09 04:56:15;;;;;;;;;4.00;2.00;;;;;15.56;63.92;101102.50;5114322;27;45232;-67
2022/06/09 04:58:41;;;;;;;;;4.00;2.67;;;;;15.60;63.66;101107.03;5126275;27;45459;-67
2022/06/09 05:01:14;;;;;;;;;8.00;4.00;;;;;15.61;63.85;101108.84;5113961;27;45393;-68
2022/06/09 05:03:40;;;;;;;;;6.00;4.00;;;;;15.28;64.24;101045.63;5119729;27;45537;-66
2022/06/09 05:06:05;;;;;;;;;5.00;3.67;;;;;15.73;63.87;101107.19;5121281;27;45177;-70
2022/06/09 05:08:30;;;;;;;;;5.33;4.67;;;;;15.73;63.66;101118.84;5127174;27;45147;-68
2022/06/09 05:10:56;;;;;;;;;6.67;4.67;;;;;15.64;63.68;101103.50;5111399;27;46678;-67
2022/06/09 05:13:21;;;;;;;;;3.00;3.00;;;;;15.72;63.79;101119.72;5120480;27;45160;-71
2022/06/09 05:15:56;;;;;;;;;10.33;4.33;;;;;15.76;63.69;101118.03;5115723;27;45530;-68
2022/06/09 05:18:24;;;;;;;;;7.00;4.00;;;;;15.88;63.16;101123.53;5120140;27;45142;-65
2022/06/09 05:20:50;;;;;;;;;5.67;5.67;;;;;15.98;63.09;101117.34;5113737;27;45359;-68
2022/06/09 05:23:18;;;;;;;;;10.00;9.00;;;;;15.80;62.60;101064.16;5117860;27;45095;-71
2022/06/09 05:25:47;;;;;;;;;5.67;3.67;;;;;16.15;62.52;101127.38;5132850;27;45209;-68
2022/06/09 05:28:12;;;;;;;;;8.00;4.67;;;;;16.06;62.64;101119.22;5117303;27;45212;-68
2022/06/09 05:30:38;;;;;;;;;5.00;2.00;;;;;15.98;62.41;101114.66;5117173;27;44961;-69
2022/06/09 05:33:03;;;;;;;;;9.67;7.67;;;;;15.92;62.81;101102.91;5117781;27;45172;-67
2022/06/09 05:35:29;;;;;;;;;14.75;10.50;;;;;16.13;62.55;101145.34;5125038;27;45760;-70
2022/06/09 05:46:09;;;;;;;;;8.67;5.33;;;;;16.33;62.26;101150.91;5117436;27;45201;-68
2022/06/09 05:48:35;;;;;;;;;15.33;7.00;;;;;16.32;61.63;101132.97;5114731;27;45100;-64
2022/06/09 05:51:01;;;;;;;;;4.67;4.67;;;;;16.50;61.58;101157.38;5123287;27;45691;-68
2022/06/09 05:53:27;;;;;;;;;7.00;6.00;;;;;16.17;61.37;101098.69;5127723;27;45315;-67
2022/06/09 05:55:52;;;;;;;;;10.67;5.67;;;;;16.38;61.47;101150.09;5115480;27;45255;-70
2022/06/09 05:58:18;;;;;;;;;8.67;4.67;;;;;16.50;60.93;101160.06;5114166;27;45250;-68
2022/06/09 06:00:45;;;;;;;;;7.00;4.33;;;;;16.49;61.29;101160.06;5116890;27;45027;-66
2022/06/09 06:03:12;;;;;;;;;7.67;4.67;;;;;16.36;61.38;101132.97;5113933;27;44983;-69
2022/06/09 06:08:21;;;;;;;;;8.00;4.00;;;;;16.52;61.13;101155.59;5117822;27;45406;-65
2022/06/09 06:10:47;;;;;;;;;6.67;4.33;;;;;16.70;61.39;101175.53;5109064;27;45492;-68
2022/06/09 06:13:13;;;;;;;;;7.00;6.00;;;;;16.78;60.69;101173.81;5116467;27;46285;-67
2022/06/09 06:15:38;;;;;;;;;36.75;29.25;;;;;16.91;60.45;101173.03;5118426;27;44995;-66
2022/06/09 06:18:04;;;;;;;;;13.67;12.00;;;;;17.06;60.03;101180.31;5113867;27;45067;-66
2022/06/09 06:20:33;;;;;;;;;8.67;4.33;;;;;17.11;59.71;101186.66;5120466;27;45597;-68
2022/06/09 06:22:59;;;;;;;;;6.67;6.00;;;;;17.24;59.60;101186.72;5105946;27;45410;-69
2022/06/09 06:25:25;;;;;;;;;3.00;3.00;;;;;17.25;59.19;101164.22;5117306;27;45527;-68
2022/06/09 06:27:51;;;;;;;;;9.67;7.00;;;;;17.44;58.72;101184.13;5111059;27;45361;-69
2022/06/09 06:30:16;;;;;;;;;11.67;8.67;;;;;17.44;58.75;101190.44;5102484;27;45606;-67
2022/06/09 06:32:42;;;;;;;;;11.00;9.00;;;;;17.34;59.25;101157.97;5112721;27;45384;-68
2022/06/09 06:35:08;;;;;;;;;4.33;3.00;;;;;17.61;58.46;101190.53;5095899;27;46217;-70
2022/06/09 06:37:33;;;;;;;;;13.67;4.00;;;;;17.74;58.06;101204.09;5094017;27;45632;-66
2022/06/09 06:39:59;;;;;;;;;7.67;7.67;;;;;17.77;57.95;101201.38;5111988;27;46569;-66
2022/06/09 06:42:25;;;;;;;;;5.00;4.00;;;;;17.67;57.43;101197.78;5114465;27;45542;-67
2022/06/09 06:44:50;;;;;;;;;4.00;4.00;;;;;17.66;57.65;101204.06;5096900;27;45602;-66
2022/06/09 06:47:15;;;;;;;;;4.00;4.00;;;;;17.55;57.07;101186.88;5105181;27;45578;-71
2022/06/09 06:49:41;;;;;;;;;9.33;6.67;;;;;17.17;57.34;101126.38;5098511;27;48531;-69
2022/06/09 06:52:06;;;;;;;;;8.00;5.67;;;;;17.71;57.23;101206.78;5097010;27;50451;-68
2022/06/09 06:54:32;;;;;;;;;5.00;5.00;;;;;17.62;57.11;101205.84;5105574;27;45403;-67
2022/06/09 06:56:57;;;;;;;;;3.33;3.00;;;;;17.42;57.25;101189.53;5115171;27;45553;-68
2022/06/09 06:59:22;;;;;;;;;6.33;4.00;;;;;17.48;57.50;101216.56;5094877;27;51492;-69
2022/06/09 07:01:48;;;;;;;;;13.33;8.00;;;;;17.25;57.34;101192.13;5114224;27;45508;-70
2022/06/09 07:04:13;;;;;;;;;6.67;3.67;;;;;17.39;57.77;101216.53;5059289;27;45370;-67
2022/06/09 07:06:39;;;;;;;;;9.67;6.67;;;;;17.47;57.24;101211.16;5113941;27;45502;-69
2022/06/09 07:09:04;;;;;;;;;7.67;4.33;;;;;17.69;56.83;101233.81;5114104;27;46185;-68
2022/06/09 07:11:30;;;;;;;;;6.33;5.33;;;;;17.80;55.98;101232.06;5114537;27;45644;-66
2022/06/09 07:13:55;;;;;;;;;6.33;6.33;;;;;17.81;55.77;101222.13;5114525;27;45340;-67
2022/06/09 07:16:20;;;;;;;;;6.67;5.67;;;;;17.80;55.28;101223.94;5115157;27;45257;-71
2022/06/09 07:18:46;;;;;;;;;12.00;8.00;;;;;17.99;55.18;101241.16;5114122;27;48489;-68
2022/06/09 07:21:13;;;;;;;;;5.33;4.33;;;;;18.07;54.50;101246.59;5114785;27;45577;-68
2022/06/09 07:23:39;;;;;;;;;11.67;6.00;;;;;18.06;54.55;101247.50;5114930;27;45459;-68
2022/06/09 07:26:05;;;;;;;;;9.00;8.00;;;;;18.18;54.96;101257.44;5114937;27;45625;-69
2022/06/09 07:28:32;;;;;;;;;6.67;6.33;;;;;18.27;54.13;101257.47;5096384;27;47171;-67
2022/06/09 07:30:59;;;;;;;;;6.00;4.00;;;;;18.29;54.00;101263.78;5114023;27;45363;-70
2022/06/09 07:33:30;;;;;;;;;9.67;6.00;;;;;18.29;54.25;101257.50;5114130;27;45281;-66
2022/06/09 07:35:56;;;;;;;;;5.33;4.67;;;;;18.26;54.19;101266.47;5113928;27;45596;-70
2022/06/09 07:38:25;;;;;;;;;11.67;6.00;;;;;18.31;53.64;101263.78;5113896;27;45567;-69
2022/06/09 07:40:51;;;;;;;;;5.67;4.00;;;;;18.39;53.26;101275.53;5113721;27;45311;-69
2022/06/09 07:43:19;;;;;;;;;13.00;10.33;;;;;18.42;53.45;101268.34;5095315;27;45643;-72
2022/06/09 07:45:45;;;;;;;;;4.67;4.33;;;;;18.38;53.18;101252.13;5114015;27;45383;-71
2022/06/09 07:48:11;;;;;;;;;6.67;5.33;;;;;18.62;52.91;101248.53;5113323;27;46121;-67
2022/06/09 07:50:37;;;;;;;;;15.00;13.33;;;;;19.01;51.40;101278.38;5098199;27;45372;-72
2022/06/09 07:53:03;;;;;;;;;6.00;4.00;;;;;19.08;50.18;101248.56;5093500;27;45414;-70
2022/06/09 07:55:29;;;;;;;;;4.67;4.67;;;;;19.38;49.92;101271.09;5094153;27;45398;-70
2022/06/09 07:57:54;;;;;;;;;6.67;6.67;;;;;19.41;48.88;101271.09;5095665;27;46745;-69
2022/06/09 08:00:22;;;;;;;;;10.00;7.00;;;;;19.43;48.99;101268.41;5097182;27;45370;-68
2022/06/09 08:02:48;;;;;;;;;10.67;6.00;;;;;19.45;49.24;101259.38;5098095;27;45624;-69
2022/06/09 08:05:16;;;;;;;;;7.33;4.00;;;;;19.44;48.87;101268.41;5097638;27;45503;-72
2022/06/09 08:07:41;;;;;;;;;10.33;7.00;;;;;19.40;49.38;101276.53;5097065;27;45577;-69
2022/06/09 08:10:08;;;;;;;;;7.33;6.67;;;;;19.45;49.22;101286.47;5097284;27;45296;-72
2022/06/09 08:12:34;;;;;;;;;8.33;7.33;;;;;19.47;49.53;101283.75;5111201;27;45342;-63
2022/06/09 08:14:59;;;;;;;;;6.33;5.00;;;;;19.36;48.70;101256.66;5117180;27;45338;-67
2022/06/09 08:17:25;;;;;;;;;11.00;8.33;;;;;19.49;48.67;101269.28;5117023;27;45328;-69
2022/06/09 08:19:51;;;;;;;;;8.67;5.00;;;;;19.38;47.81;101257.56;5117082;27;45410;-68
2022/06/09 08:22:17;;;;;;;;;8.33;4.33;;;;;19.52;47.56;101290.06;5117136;27;45584;-65
2022/06/09 08:24:42;;;;;;;;;5.67;4.00;;;;;19.53;47.73;101286.44;5117101;27;45441;-66
2022/06/09 08:27:08;;;;;;;;;9.33;7.33;;;;;19.45;47.20;101269.28;5116521;27;46472;-70
2022/06/09 08:29:33;;;;;;;;;9.00;4.00;;;;;19.25;48.09;101253.97;5116687;27;45436;-70
2022/06/09 08:31:59;;;;;;;;;8.67;6.00;;;;;19.58;48.25;101298.16;5116846;27;45458;-69
2022/06/09 08:34:25;;;;;;;;;13.00;11.67;;;;;19.77;48.38;101306.31;5116706;27;45383;-64
2022/06/09 08:36:50;;;;;;;;;17.33;8.33;;;;;19.95;47.91;101306.25;5116051;27;45437;-69
2022/06/09 08:39:16;;;;;;;;;9.00;4.00;;;;;19.93;47.56;101299.94;5116804;27;45538;-70
2022/06/09 08:42:00;;;;;;;;;7.00;5.67;;;;;19.93;47.63;101308.06;5117224;27;45531;-66
2022/06/09 08:44:40;;;;;;;;;4.00;3.67;;;;;19.69;46.91;101288.22;5116782;27;45449;-70
2022/06/09 08:47:12;;;;;;;;;3.67;3.67;;;;;19.80;46.87;101309.00;5116565;27;45535;-69
2022/06/09 08:50:02;;;;;;;;;6.00;5.00;;;;;19.85;47.49;101308.09;5116697;27;45378;-67
2022/06/09 08:53:09;;;;;;;;;6.67;6.67;;;;;19.98;46.84;101302.63;5117025;27;45610;-69
2022/06/09 08:55:37;;;;;;;;;10.33;5.67;;;;;19.94;46.71;101296.31;5097989;27;45302;-65
2022/06/09 08:58:11;;;;;;;;;5.00;4.33;;;;;20.10;46.23;101302.59;5115831;27;45455;-69
2022/06/09 09:00:41;;;;;;;;;6.67;4.00;;;;;20.09;45.99;101294.44;5115948;27;45473;-68
2022/06/09 09:03:15;;;;;;;;;3.00;3.00;;;;;20.19;45.33;101286.25;5115975;27;45397;-68
2022/06/09 09:05:59;;;;;;;;;5.67;3.67;;;;;20.31;45.95;101290.72;5098334;27;45591;-68
2022/06/09 09:08:25;;;;;;;;;3.00;3.00;;;;;20.47;45.33;101290.63;5116467;27;46131;-71
2022/06/09 09:11:11;;;;;;;;;5.33;4.67;;;;;20.56;45.59;101302.34;5097299;27;45433;-65
2022/06/09 09:13:44;;;;;;;;;2.00;2.00;;;;;20.53;44.45;101294.22;5115798;27;45514;-65
2022/06/09 09:16:21;;;;;;;;;5.67;3.00;;;;;20.28;44.32;101285.31;5096963;27;45522;-68
2022/06/09 09:19:03;;;;;;;;;4.00;4.00;;;;;20.20;45.06;101296.19;5096481;27;45720;-70
2022/06/09 09:22:04;;;;;;;;;9.33;4.00;;;;;20.11;45.03;101295.34;5096383;27;45396;-66
2022/06/09 09:24:41;;;;;;;;;3.67;3.67;;;;;19.99;45.11;101296.28;5091806;27;45597;-66
2022/06/09 09:27:20;;;;;;;;;4.33;3.00;;;;;19.93;45.57;101296.31;5096725;27;45441;-67
2022/06/09 09:29:47;;;;;;;;;4.33;4.00;;;;;20.02;44.74;101305.31;5096199;27;46239;-70
2022/06/09 09:32:20;;;;;;;;;3.33;3.33;;;;;20.09;45.14;101289.91;5096167;27;45416;-68
2022/06/09 09:34:48;;;;;;;;;3.00;3.00;;;;;20.29;44.86;101299.78;5115885;27;45452;-69
2022/06/09 09:37:20;;;;;;;;;3.00;2.00;;;;;20.51;44.86;101304.19;5116479;27;45512;-66
2022/06/09 09:39:58;;;;;;;;;9.00;9.00;;;;;20.86;44.51;101307.63;5116169;27;45558;-68
2022/06/09 09:42:28;;;;;;;;;3.67;2.33;;;;;21.15;44.00;101293.78;5110959;27;45460;-70
2022/06/09 09:45:04;;;;;;;;;5.00;3.00;;;;;21.33;43.68;101296.38;5115670;27;45432;-67
2022/06/09 09:47:32;;;;;;;;;8.33;4.33;;;;;21.19;43.26;101262.97;5116404;27;45373;-72
2022/06/09 09:50:35;;;;;;;;;3.33;3.00;;;;;21.09;43.38;101232.25;5115382;27;45563;-70
2022/06/09 09:53:06;;;;;;;;;2.33;2.33;;;;;21.40;43.26;101307.16;5115307;27;45495;-67
2022/06/09 09:55:38;;;;;;;;;3.33;3.00;;;;;21.42;43.28;101308.06;5116357;27;45392;-70
2022/06/09 09:58:16;;;;;;;;;7.33;4.67;;;;;21.57;42.84;101307.94;5115655;27;45474;-65
2022/06/09 10:00:42;;;;;;;;;6.33;4.00;;;;;21.76;40.62;101311.34;5115712;27;46455;-65
2022/06/09 10:08:50;;;;;;;;;5.67;5.67;;;;;21.80;40.55;101307.69;5115516;27;45420;-67
2022/06/09 10:14:26;;;;;;;;;8.33;8.33;;;;;22.11;40.45;101326.38;5115516;27;45534;-68
2022/06/09 10:16:53;;;;;;;;;5.67;3.00;;;;;22.24;38.95;101319.88;5115646;27;45642;-69
2022/06/09 10:19:23;;;;;;;;;4.33;4.33;;;;;22.13;39.77;101310.03;5115085;27;45396;-68
2022/06/09 10:21:54;;;;;;;;;4.00;4.00;;;;;22.08;40.68;101319.16;5114019;27;46412;-68
2022/06/09 10:24:26;;;;;;;;;6.33;3.00;;;;;22.01;40.88;101335.56;5106734;27;45882;-65
2022/06/09 10:26:55;;;;;;;;;3.00;3.00;;;;;21.80;41.18;101336.72;5095391;27;45379;-64
2022/06/09 10:29:36;;;;;;;;;7.00;3.00;;;;;21.60;41.02;101331.50;5095295;27;45393;-63
2022/06/09 10:32:14;;;;;;;;;5.67;4.00;;;;;21.42;41.32;101333.41;5094814;27;45687;-68
2022/06/09 10:34:50;;;;;;;;;2.00;2.00;;;;;21.24;41.03;101336.31;5094883;27;45661;-71
2022/06/09 10:37:24;;;;;;;;;4.67;3.33;;;;;20.99;42.04;101320.19;5094744;27;45461;-69
2022/06/09 10:39:57;;;;;;;;;3.67;3.67;;;;;20.89;42.41;101310.31;5108886;27;45531;-71
2022/06/09 10:42:29;;;;;;;;;6.33;3.67;;;;;21.09;41.91;101330.06;5115001;27;45443;-64
2022/06/09 10:45:12;;;;;;;;;2.33;2.33;;;;;21.04;41.94;101306.59;5115528;27;45436;-68
2022/06/09 10:57:10;;;;;;;;;4.00;2.67;;;;;21.60;40.98;101339.66;5114422;27;45487;-65
2022/06/09 10:59:44;;;;;;;;;3.67;3.00;;;;;21.55;41.20;101345.13;5114302;27;45383;-67
2022/06/09 11:02:21;;;;;;;;;3.00;2.00;;;;;21.53;40.37;101344.22;5114611;27;45503;-66
2022/06/09 11:04:49;;;;;;;;;1.00;1.00;;;;;21.45;40.61;101324.31;5114459;27;45435;-65
2022/06/09 11:08:00;;;;;;;;;2.67;2.00;;;;;21.64;40.61;101352.28;5114485;27;45494;-69
2022/06/09 11:10:49;;;;;;;;;3.67;2.67;;;;;21.75;39.54;101352.19;5081663;27;45481;-66
2022/06/09 11:13:25;;;;;;;;;4.33;3.67;;;;;21.87;39.49;101358.38;5094781;27;45706;-65
2022/06/09 11:16:09;;;;;;;;;4.00;3.67;;;;;21.83;39.01;101358.44;5094283;27;46173;-65
2022/06/09 11:19:04;;;;;;;;;3.00;3.00;;;;;21.90;38.93;101346.56;5108829;27;45597;-64
2022/06/09 11:21:32;;;;;;;;;2.33;2.33;;;;;21.95;38.96;101347.41;5113977;27;45553;-66
2022/06/09 11:24:25;;;;;;;;;4.00;3.00;;;;;21.98;38.63;101347.38;5114305;27;45314;-66
2022/06/09 11:27:03;;;;;;;;;5.00;4.00;;;;;22.09;37.32;101355.41;5114686;27;46425;-68
2022/06/09 11:30:08;;;;;;;;;5.00;4.33;;;;;22.22;36.89;101354.38;5113982;27;45719;-67
2022/06/09 11:32:38;;;;;;;;;1.00;1.00;;;;;22.45;37.07;101354.13;5115472;27;45535;-68
2022/06/09 11:35:19;;;;;;;;;3.67;3.00;;;;;22.58;37.64;101363.00;5099102;27;45496;-71
2022/06/09 11:37:51;;;;;;;;;6.00;3.00;;;;;22.80;37.42;101357.25;5117754;27;45443;-65
2022/06/09 11:40:19;;;;;;;;;3.00;3.00;;;;;22.96;36.44;101353.38;5117100;27;45514;-68
2022/06/09 11:42:55;;;;;;;;;8.00;6.67;;;;;23.12;36.08;101353.19;5117397;27;45266;-64
2022/06/09 11:45:33;;;;;;;;;3.00;3.00;;;;;23.33;35.83;101354.66;5117546;27;45287;-65
2022/06/09 11:48:05;;;;;;;;;21.67;16.67;;;;;23.52;36.27;101352.50;5104555;27;45526;-65
2022/06/09 11:50:37;;;;;;;;;19.00;17.00;;;;;23.69;36.04;101354.91;5110494;27;45291;-68
2022/06/09 11:53:04;;;;;;;;;13.33;11.00;;;;;23.86;35.52;101351.94;5112018;27;45398;-65
2022/06/09 11:56:00;;;;;;;;;3.00;3.00;;;;;23.90;35.33;101346.34;5117880;27;45453;-71
2022/06/09 11:58:34;;;;;;;;;12.33;4.00;;;;;23.84;35.04;101349.22;5117044;27;46389;-67
2022/06/09 12:01:21;;;;;;;;;16.00;15.50;;;;;23.79;35.43;101350.19;5117413;27;45302;-69
2022/06/09 12:04:07;;;;;;;;;4.33;4.00;;;;;23.88;34.61;101360.97;5116873;27;45435;-65
2022/06/09 12:07:10;;;;;;;;;2.67;2.67;;;;;23.95;34.40;101354.47;5117493;27;45587;-67
2022/06/09 12:09:51;;;;;;;;;6.00;3.00;;;;;23.97;34.58;101351.69;5116909;27;45579;-67